PWSweather.com
Personal Weather Stations
Station Observations
REUBENS
Camas Prairie, Reubens, ID 83548

Camas PrairieReubens, ID 83548

Lat: 46.35417, Lon: -116.53167

Elevation: 3480

Station Type: Davis VantagePro 2

http://www.theobrienranch.com/wx/wx.htm

Latest ConditionsUpdated 8:15:00 PM PST Sunday, Jan 22, 2017
Currently Today's Max Today's Min Today's Average
Temperature 30.7°F-0.7°C 35.2°F1.8°C 27.2°F-2.7°C 30.5°F-0.8°C
Dew Point 29.2°F-1.6°C 29.9°F-1.2°C 23.4°F-4.8°C 26.6°F-3.0°C
Winds 6.9 mph W11.1 kmh W 17.3 mph E27.8 kmh E - 8.9 mph 14.3 kmh
Wind Gusts 10.4 mph16.7 kmh 19.6 mph31.5 kmh - -
Humidity 94% 95% 70% 85%
Pressure 29.82 in1009.8 mb 29.95 in1014.2 mb 29.77 in1008.1 mb -
Hour Temp Dew Point Humidity Winds Wind Gusts Pressure Precip Precip Rate Daily Precip Total
08:15 PM 30.7°F-0.7°C 29.2°F-1.6°C 94% 6.9 mph W11.1 kmh W 10.4 mph16.7 kmh 29.82 in1009.8 mb - 0.00 in0.0 mm 0.00 in0.0 mm
08:00 PM 30.8°F-0.7°C 29.3°F-1.5°C 94% 10.4 mph W16.7 kmh W 11.5 mph18.5 kmh 29.82 in1009.8 mb - 0.00 in0.0 mm 0.00 in0.0 mm
07:45 PM 31.0°F-0.6°C 29.7°F-1.3°C 95% 11.5 mph WSW18.5 kmh WSW 18.4 mph29.6 kmh 29.82 in1009.8 mb - 0.00 in0.0 mm 0.00 in0.0 mm
07:30 PM 31.0°F-0.6°C 29.7°F-1.3°C 95% 5.8 mph SW9.3 kmh SW 6.9 mph11.1 kmh 29.82 in1009.8 mb - 0.00 in0.0 mm 0.00 in0.0 mm
07:15 PM 30.7°F-0.7°C 29.2°F-1.6°C 94% 5.8 mph SW9.3 kmh SW 6.9 mph11.1 kmh 29.82 in1009.8 mb - 0.00 in0.0 mm 0.00 in0.0 mm
07:00 PM 30.7°F-0.7°C 29.2°F-1.6°C 94% Calm Calm -- 29.81 in1009.5 mb - 0.00 in0.0 mm 0.00 in0.0 mm
06:45 PM 30.7°F-0.7°C 29.2°F-1.6°C 94% 2.3 mph SW3.7 kmh SW 2.3 mph3.7 kmh 29.81 in1009.5 mb - 0.00 in0.0 mm 0.00 in0.0 mm
06:30 PM 30.6°F-0.8°C 29.1°F-1.6°C 94% 5.8 mph SW9.3 kmh SW 5.8 mph9.3 kmh 29.80 in1009.1 mb - 0.00 in0.0 mm 0.00 in0.0 mm
06:15 PM 30.9°F-0.6°C 29.1°F-1.6°C 93% 2.3 mph SE3.7 kmh SE 3.5 mph5.6 kmh 29.79 in1008.8 mb - 0.00 in0.0 mm 0.00 in0.0 mm
06:00 PM 30.9°F-0.6°C 29.1°F-1.6°C 93% 3.5 mph SE5.6 kmh SE 3.5 mph5.6 kmh 29.79 in1008.8 mb - 0.00 in0.0 mm 0.00 in0.0 mm
05:45 PM 30.9°F-0.6°C 29.1°F-1.6°C 93% 8.1 mph SE13.0 kmh SE 10.4 mph16.7 kmh 29.79 in1008.8 mb - 0.00 in0.0 mm 0.00 in0.0 mm
05:30 PM 30.9°F-0.6°C 29.1°F-1.6°C 93% 6.9 mph SE11.1 kmh SE 9.2 mph14.8 kmh 29.79 in1008.8 mb - 0.00 in0.0 mm 0.00 in0.0 mm
05:15 PM 31.1°F-0.5°C 29.0°F-1.7°C 92% 9.2 mph SE14.8 kmh SE 10.4 mph16.7 kmh 29.79 in1008.8 mb - 0.00 in0.0 mm 0.00 in0.0 mm
05:00 PM 31.3°F-0.4°C 29.2°F-1.6°C 92% 10.4 mph SE16.7 kmh SE 11.5 mph18.5 kmh 29.79 in1008.8 mb - 0.00 in0.0 mm 0.00 in0.0 mm
04:45 PM 31.5°F-0.3°C 29.2°F-1.6°C 91% 11.5 mph SE18.5 kmh SE 11.5 mph18.5 kmh 29.78 in1008.5 mb - 0.00 in0.0 mm 0.00 in0.0 mm
04:30 PM 31.7°F-0.2°C 29.1°F-1.6°C 90% 10.4 mph ESE16.7 kmh ESE 11.5 mph18.5 kmh 29.78 in1008.5 mb - 0.00 in0.0 mm 0.00 in0.0 mm
04:15 PM 31.8°F-0.1°C 29.2°F-1.6°C 90% 10.4 mph ESE16.7 kmh ESE 12.7 mph20.4 kmh 29.78 in1008.5 mb - 0.00 in0.0 mm 0.00 in0.0 mm
04:00 PM 31.8°F-0.1°C 29.2°F-1.6°C 90% 12.7 mph ESE20.4 kmh ESE 12.7 mph20.4 kmh 29.78 in1008.5 mb - 0.00 in0.0 mm 0.00 in0.0 mm
03:45 PM 31.9°F-0.1°C 29.3°F-1.5°C 90% 12.7 mph ESE20.4 kmh ESE 12.7 mph20.4 kmh 29.78 in1008.5 mb - 0.00 in0.0 mm 0.00 in0.0 mm
03:30 PM 32.1°F0.1°C 29.5°F-1.4°C 90% 16.1 mph E25.9 kmh E 17.3 mph27.8 kmh 29.78 in1008.5 mb - 0.00 in0.0 mm 0.00 in0.0 mm
03:15 PM 32.5°F0.3°C 29.3°F-1.5°C 88% 15.0 mph E24.1 kmh E 17.3 mph27.8 kmh 29.77 in1008.1 mb - 0.00 in0.0 mm 0.00 in0.0 mm
03:00 PM 32.9°F0.5°C 29.5°F-1.4°C 87% 17.3 mph E27.8 kmh E 19.6 mph31.5 kmh 29.77 in1008.1 mb - 0.00 in0.0 mm 0.00 in0.0 mm
02:45 PM 33.4°F0.8°C 29.4°F-1.4°C 85% 16.1 mph ESE25.9 kmh ESE 17.3 mph27.8 kmh 29.77 in1008.1 mb - 0.00 in0.0 mm 0.00 in0.0 mm
02:30 PM 33.4°F0.8°C 29.4°F-1.4°C 85% 15.0 mph ESE24.1 kmh ESE 17.3 mph27.8 kmh 29.77 in1008.1 mb - 0.00 in0.0 mm 0.00 in0.0 mm
02:15 PM 33.4°F0.8°C 29.7°F-1.3°C 86% 12.7 mph E20.4 kmh E 16.1 mph25.9 kmh 29.77 in1008.1 mb - 0.00 in0.0 mm 0.00 in0.0 mm
02:00 PM 32.8°F0.4°C 29.9°F-1.2°C 89% 12.7 mph ESE20.4 kmh ESE 12.7 mph20.4 kmh 29.77 in1008.1 mb - 0.00 in0.0 mm 0.00 in0.0 mm
01:45 PM 32.5°F0.3°C 29.6°F-1.3°C 89% 11.5 mph E18.5 kmh E 13.8 mph22.2 kmh 29.78 in1008.5 mb - 0.00 in0.0 mm 0.00 in0.0 mm
01:30 PM 32.5°F0.3°C 29.6°F-1.3°C 89% 10.4 mph E16.7 kmh E 10.4 mph16.7 kmh 29.79 in1008.8 mb - 0.00 in0.0 mm 0.00 in0.0 mm
01:15 PM 32.4°F0.2°C 29.2°F-1.6°C 88% 9.2 mph ESE14.8 kmh ESE 10.4 mph16.7 kmh 29.79 in1008.8 mb - 0.00 in0.0 mm 0.00 in0.0 mm
01:00 PM 33.0°F0.6°C 28.7°F-1.8°C 84% 9.2 mph ESE14.8 kmh ESE 11.5 mph18.5 kmh 29.78 in1008.5 mb - 0.00 in0.0 mm 0.00 in0.0 mm
12:45 PM 33.3°F0.7°C 28.1°F-2.2°C 81% 3.5 mph SSE5.6 kmh SSE 4.6 mph7.4 kmh 29.79 in1008.8 mb - 0.00 in0.0 mm 0.00 in0.0 mm
12:30 PM 34.1°F1.2°C 27.0°F-2.8°C 75% 15.0 mph SE24.1 kmh SE 16.1 mph25.9 kmh 29.80 in1009.1 mb - 0.00 in0.0 mm 0.00 in0.0 mm
12:15 PM 34.1°F1.2°C 26.0°F-3.3°C 72% 6.9 mph E11.1 kmh E 6.9 mph11.1 kmh 29.79 in1008.8 mb - 0.00 in0.0 mm 0.00 in0.0 mm
12:00 PM 34.3°F1.3°C 25.5°F-3.6°C 70% 10.4 mph E16.7 kmh E 11.5 mph18.5 kmh 29.78 in1008.5 mb - 0.00 in0.0 mm 0.00 in0.0 mm
11:45 AM 34.7°F1.5°C 26.6°F-3.0°C 72% 11.5 mph ENE18.5 kmh ENE 13.8 mph22.2 kmh 29.78 in1008.5 mb - 0.00 in0.0 mm 0.00 in0.0 mm
11:30 AM 35.2°F1.8°C 26.8°F-2.9°C 71% 12.7 mph E20.4 kmh E 12.7 mph20.4 kmh 29.80 in1009.1 mb - 0.00 in0.0 mm 0.00 in0.0 mm
11:15 AM 32.9°F0.5°C 25.1°F-3.8°C 73% 12.7 mph E20.4 kmh E 12.7 mph20.4 kmh 29.81 in1009.5 mb - 0.00 in0.0 mm 0.00 in0.0 mm
11:00 AM 32.1°F0.1°C 24.7°F-4.1°C 74% 11.5 mph ESE18.5 kmh ESE 13.8 mph22.2 kmh 29.81 in1009.5 mb - 0.00 in0.0 mm 0.00 in0.0 mm
10:45 AM 31.1°F-0.5°C 24.8°F-4.0°C 77% 10.4 mph ESE16.7 kmh ESE 12.7 mph20.4 kmh 29.82 in1009.8 mb - 0.00 in0.0 mm 0.00 in0.0 mm
10:30 AM 30.7°F-0.7°C 24.6°F-4.1°C 78% 8.1 mph SE13.0 kmh SE 10.4 mph16.7 kmh 29.83 in1010.2 mb - 0.00 in0.0 mm 0.00 in0.0 mm
10:15 AM 30.1°F-1.1°C 24.4°F-4.2°C 79% 10.4 mph ESE16.7 kmh ESE 11.5 mph18.5 kmh 29.83 in1010.2 mb - 0.00 in0.0 mm 0.00 in0.0 mm
10:00 AM 30.6°F-0.8°C 24.6°F-4.1°C 78% 11.5 mph ESE18.5 kmh ESE 15.0 mph24.1 kmh 29.82 in1009.8 mb - 0.00 in0.0 mm 0.00 in0.0 mm
09:45 AM 30.4°F-0.9°C 24.7°F-4.1°C 79% 13.8 mph ESE22.2 kmh ESE 16.1 mph25.9 kmh 29.83 in1010.2 mb - 0.00 in0.0 mm 0.00 in0.0 mm
09:30 AM 29.2°F-1.6°C 24.1°F-4.4°C 81% 10.4 mph E16.7 kmh E 11.5 mph18.5 kmh 29.84 in1010.5 mb - 0.00 in0.0 mm 0.00 in0.0 mm
09:15 AM 28.7°F-1.8°C 24.2°F-4.3°C 83% 11.5 mph ESE18.5 kmh ESE 12.7 mph20.4 kmh 29.84 in1010.5 mb - 0.00 in0.0 mm 0.00 in0.0 mm
09:00 AM 28.0°F-2.2°C 23.8°F-4.6°C 84% 10.4 mph ESE16.7 kmh ESE 11.5 mph18.5 kmh 29.85 in1010.8 mb - 0.00 in0.0 mm 0.00 in0.0 mm
08:45 AM 27.9°F-2.3°C 23.7°F-4.6°C 84% 10.4 mph ESE16.7 kmh ESE 11.5 mph18.5 kmh 29.85 in1010.8 mb - 0.00 in0.0 mm 0.00 in0.0 mm
08:30 AM 28.4°F-2.0°C 24.2°F-4.3°C 84% 10.4 mph ESE16.7 kmh ESE 11.5 mph18.5 kmh 29.85 in1010.8 mb - 0.00 in0.0 mm 0.00 in0.0 mm
08:15 AM 28.3°F-2.1°C 24.1°F-4.4°C 84% 11.5 mph ESE18.5 kmh ESE 12.7 mph20.4 kmh 29.85 in1010.8 mb - 0.00 in0.0 mm 0.00 in0.0 mm
08:00 AM 28.6°F-1.9°C 24.0°F-4.4°C 83% 12.7 mph ESE20.4 kmh ESE 13.8 mph22.2 kmh 29.84 in1010.5 mb - 0.00 in0.0 mm 0.00 in0.0 mm
07:45 AM 28.0°F-2.2°C 23.8°F-4.6°C 84% 12.7 mph ESE20.4 kmh ESE 12.7 mph20.4 kmh 29.86 in1011.2 mb - 0.00 in0.0 mm 0.00 in0.0 mm
07:30 AM 28.2°F-2.1°C 23.4°F-4.8°C 82% 12.7 mph ESE20.4 kmh ESE 13.8 mph22.2 kmh 29.86 in1011.2 mb - 0.00 in0.0 mm 0.00 in0.0 mm
07:15 AM 28.6°F-1.9°C 23.8°F-4.6°C 82% 13.8 mph ESE22.2 kmh ESE 16.1 mph25.9 kmh 29.86 in1011.2 mb - 0.00 in0.0 mm 0.00 in0.0 mm
07:00 AM 29.0°F-1.7°C 24.2°F-4.3°C 82% 11.5 mph ESE18.5 kmh ESE 11.5 mph18.5 kmh 29.86 in1011.2 mb - 0.00 in0.0 mm 0.00 in0.0 mm
06:45 AM 28.0°F-2.2°C 23.8°F-4.6°C 84% 10.4 mph ESE16.7 kmh ESE 11.5 mph18.5 kmh 29.88 in1011.9 mb - 0.00 in0.0 mm 0.00 in0.0 mm
06:30 AM 28.1°F-2.2°C 23.9°F-4.5°C 84% 10.4 mph ESE16.7 kmh ESE 11.5 mph18.5 kmh 29.88 in1011.9 mb - 0.00 in0.0 mm 0.00 in0.0 mm
06:15 AM 28.0°F-2.2°C 24.1°F-4.4°C 85% 12.7 mph SE20.4 kmh SE 12.7 mph20.4 kmh 29.89 in1012.2 mb - 0.00 in0.0 mm 0.00 in0.0 mm
06:00 AM 28.8°F-1.8°C 24.8°F-4.0°C 85% 10.4 mph ESE16.7 kmh ESE 10.4 mph16.7 kmh 29.89 in1012.2 mb - 0.00 in0.0 mm 0.00 in0.0 mm
05:45 AM 29.9°F-1.2°C 25.7°F-3.5°C 84% 16.1 mph SE25.9 kmh SE 17.3 mph27.8 kmh 29.89 in1012.2 mb - 0.00 in0.0 mm 0.00 in0.0 mm
05:30 AM 28.7°F-1.8°C 24.5°F-4.2°C 84% 8.1 mph ESE13.0 kmh ESE 10.4 mph16.7 kmh 29.90 in1012.5 mb - 0.00 in0.0 mm 0.00 in0.0 mm
05:15 AM 27.4°F-2.6°C 23.8°F-4.6°C 86% 8.1 mph ESE13.0 kmh ESE 10.4 mph16.7 kmh 29.91 in1012.9 mb - 0.00 in0.0 mm 0.00 in0.0 mm
05:00 AM 29.1°F-1.6°C 24.6°F-4.1°C 83% 8.1 mph SE13.0 kmh SE 9.2 mph14.8 kmh 29.91 in1012.9 mb - 0.00 in0.0 mm 0.00 in0.0 mm
04:45 AM 28.5°F-1.9°C 24.3°F-4.3°C 84% 5.8 mph SE9.3 kmh SE 8.1 mph13.0 kmh 29.91 in1012.9 mb - 0.00 in0.0 mm 0.00 in0.0 mm
04:30 AM 27.3°F-2.6°C 24.0°F-4.4°C 87% 5.8 mph ESE9.3 kmh ESE 6.9 mph11.1 kmh 29.92 in1013.2 mb - 0.00 in0.0 mm 0.00 in0.0 mm
04:15 AM 27.2°F-2.7°C 23.5°F-4.7°C 86% 6.9 mph ESE11.1 kmh ESE 6.9 mph11.1 kmh 29.93 in1013.5 mb - 0.00 in0.0 mm 0.00 in0.0 mm
04:00 AM 27.3°F-2.6°C 23.4°F-4.8°C 85% 6.9 mph ESE11.1 kmh ESE 9.2 mph14.8 kmh 29.92 in1013.2 mb - 0.00 in0.0 mm 0.00 in0.0 mm
03:45 AM 29.1°F-1.6°C 24.9°F-3.9°C 84% 5.8 mph ESE9.3 kmh ESE 6.9 mph11.1 kmh 29.91 in1012.9 mb - 0.00 in0.0 mm 0.00 in0.0 mm
03:30 AM 27.3°F-2.6°C 24.2°F-4.3°C 88% 4.6 mph ESE7.4 kmh ESE 4.6 mph7.4 kmh 29.93 in1013.5 mb - 0.00 in0.0 mm 0.00 in0.0 mm
03:15 AM 27.4°F-2.6°C 23.8°F-4.6°C 86% 3.5 mph ESE5.6 kmh ESE 3.5 mph5.6 kmh 29.93 in1013.5 mb - 0.00 in0.0 mm 0.00 in0.0 mm
03:00 AM 28.3°F-2.1°C 25.0°F-3.9°C 87% 6.9 mph ESE11.1 kmh ESE 6.9 mph11.1 kmh 29.93 in1013.5 mb - 0.00 in0.0 mm 0.00 in0.0 mm
02:45 AM 29.0°F-1.7°C 25.3°F-3.7°C 86% 5.8 mph ESE9.3 kmh ESE 6.9 mph11.1 kmh 29.94 in1013.9 mb - 0.00 in0.0 mm 0.00 in0.0 mm
02:30 AM 30.2°F-1.0°C 26.0°F-3.3°C 84% 4.6 mph ESE7.4 kmh ESE 4.6 mph7.4 kmh 29.93 in1013.5 mb - 0.00 in0.0 mm 0.00 in0.0 mm
02:15 AM 29.3°F-1.5°C 25.9°F-3.4°C 87% 4.6 mph ESE7.4 kmh ESE 5.8 mph9.3 kmh 29.94 in1013.9 mb - 0.00 in0.0 mm 0.00 in0.0 mm
02:00 AM 28.8°F-1.8°C 25.7°F-3.5°C 88% 4.6 mph E7.4 kmh E 5.8 mph9.3 kmh 29.95 in1014.2 mb - 0.00 in0.0 mm 0.00 in0.0 mm
01:45 AM 28.9°F-1.7°C 25.6°F-3.6°C 87% 3.5 mph E5.6 kmh E 3.5 mph5.6 kmh 29.94 in1013.9 mb - 0.00 in0.0 mm 0.00 in0.0 mm
01:30 AM 29.5°F-1.4°C 25.6°F-3.6°C 85% 2.3 mph E3.7 kmh E 2.3 mph3.7 kmh 29.93 in1013.5 mb - 0.00 in0.0 mm 0.00 in0.0 mm
01:15 AM 31.0°F-0.6°C 26.8°F-2.9°C 84% 2.3 mph E3.7 kmh E 3.5 mph5.6 kmh 29.93 in1013.5 mb - 0.00 in0.0 mm 0.00 in0.0 mm
01:00 AM 31.5°F-0.3°C 27.2°F-2.7°C 84% Calm Calm -- 29.93 in1013.5 mb - 0.00 in0.0 mm 0.00 in0.0 mm
12:45 AM 31.7°F-0.2°C 27.1°F-2.7°C 83% 3.5 mph E5.6 kmh E 3.5 mph5.6 kmh 29.93 in1013.5 mb - 0.00 in0.0 mm 0.00 in0.0 mm
12:30 AM 32.0°F0.0°C 27.1°F-2.7°C 82% 3.5 mph E5.6 kmh E 3.5 mph5.6 kmh 29.93 in1013.5 mb - 0.00 in0.0 mm 0.00 in0.0 mm
12:15 AM 31.8°F-0.1°C 27.2°F-2.7°C 83% 4.6 mph E7.4 kmh E 4.6 mph7.4 kmh 29.93 in1013.5 mb - 0.00 in0.0 mm 0.00 in0.0 mm
12:00 AM 32.1°F0.1°C 27.5°F-2.5°C 83% 5.8 mph E9.3 kmh E 5.8 mph9.3 kmh 29.92 in1013.2 mb - 0.00 in0.0 mm 0.00 in0.0 mm